Flight Track Log - Related Links

Times and Time Zones

All times are in EST time to prevent confusion due to time zone crossing. See the N728CA flight status page for this flight to view local times or setup timezone preferences in your user account.

Time Position Orientation Groundspeed Altitude Reporting Facility
EST Latitude Longitude Course Direction KTS MPH feet Rate Location/Type
Sun 06:18:53 PM 42.7714 -73.8061 22° Northeast 145 167 900  Level Boston Center
Sun 06:18:59 PM 42.7758 -73.8036 311° West 144 166 1,000 716 Climbing Boston Center
Sun 06:20:00 PM 42.7961 -73.8350 224° Southwest 138 159 1,700 694 Climbing Boston Center
Sun 06:21:00 PM 42.7686 -73.8711 230° Southwest 150 173 2,400 694 Climbing Boston Center
Sun 06:22:01 PM 42.7389 -73.9186 238° Southwest 152 175 3,100 639 Climbing Boston Center
Sun 06:23:02 PM 42.7172 -73.9661 236° Southwest 153 176 3,700 614 Climbing Boston Center
Sun 06:24:08 PM 42.6894 -74.0219 234° Southwest 160 184 4,400 661 Climbing Boston Center
Sun 06:25:09 PM 42.6617 -74.0747 231° Southwest 166 191 5,100 744 Climbing Boston Center
Sun 06:26:09 PM 42.6317 -74.1247 224° Southwest 167 192 5,900 771 Climbing Boston Center
Sun 06:26:19 PM 42.6275 -74.1303 232° Southwest 170 196 6,000 686 Climbing Boston Center
Sun 06:27:19 PM 42.6039 -74.1719 234° Southwest 170 196 6,700 750 Climbing Boston Center
Sun 06:28:19 PM 42.5761 -74.2247 236° Southwest 170 196 7,500 650 Climbing Boston Center
Sun 06:29:19 PM 42.5522 -74.2719 233° Southwest 170 196 8,000 250 Climbing Boston Center
Sun 06:30:19 PM 42.5181 -74.3331 235° Southwest 180 207 8,000  Level Boston Center
Sun 06:31:19 PM 42.4922 -74.3831 234° Southwest 180 207 8,000  Level Boston Center
Sun 06:32:19 PM 42.4597 -74.4439 241° Southwest 185 213 8,000  Level Boston Center
Sun 06:33:19 PM 42.4381 -74.4967 252° West 185 213 8,000  Level Boston Center
Sun 06:34:19 PM 42.4222 -74.5636 249° West 172 198 8,000  Level Boston Center
Sun 06:35:19 PM 42.4067 -74.6194 251° West 172 198 8,000  Level Boston Center
Sun 06:36:19 PM 42.3886 -74.6889 249° West 172 198 8,000  Level Boston Center
Sun 06:37:19 PM 42.3728 -74.7447 252° West 178 205 8,000  Level Boston Center
Sun 06:38:19 PM 42.3569 -74.8114 250° West 184 212 8,000  Level Boston Center
Sun 06:39:19 PM 42.3389 -74.8781 250° West 189 217 8,000  Level Boston Center
Sun 07:06:41 PM 41.8464 -76.6125 248° West 186 214 8,000  Level New York Center
Sun 07:07:41 PM 41.8264 -76.6775 252° West 186 214 8,000  Level New York Center
Sun 07:08:41 PM 41.8108 -76.7428 248° West 186 214 8,000  Level New York Center
Sun 07:09:42 PM 41.7908 -76.8078 247° West 186 214 8,000  Level New York Center
Sun 07:10:39 PM 41.7708 -76.8700 250° West 186 214 8,000  Level New York Center
Sun 07:11:40 PM 41.7531 -76.9350 248° West 186 214 8,000  Level New York Center
Sun 07:12:40 PM 41.7328 -77.0028 249° West 186 214 8,000  Level New York Center
Sun 07:13:41 PM 41.7150 -77.0650 250° West 186 214 8,000  Level New York Center
Sun 07:15:36 PM 41.6786 -77.1967 248° West 200 230 8,000  Level Cleveland Center
Sun 07:16:36 PM 41.6597 -77.2589 248° West 188 216 8,000  Level Cleveland Center
Sun 07:17:36 PM 41.6406 -77.3239 244° Southwest 188 216 8,000  Level Cleveland Center
Sun 07:18:36 PM 41.6156 -77.3917 249° West 193 222 8,000  Level Cleveland Center
Sun 07:19:36 PM 41.5964 -77.4594 248° West 198 228 8,000 -50 Level Cleveland Center
Sun 07:20:36 PM 41.5772 -77.5214 246° West 198 228 7,900 -50 Descending Cleveland Center
Sun 07:21:36 PM 41.5561 -77.5861 249° West 193 222 7,900  Level Cleveland Center
Sun 07:22:36 PM 41.5369 -77.6536 248° West 193 222 7,900  Level Cleveland Center
Sun 07:23:36 PM 41.5178 -77.7156 247° West 193 222 7,900  Level Cleveland Center
Sun 07:24:36 PM 41.4964 -77.7831 246° West 193 222 7,900  Level Cleveland Center
Sun 07:25:36 PM 41.4750 -77.8478 248° West 193 222 7,900  Level Cleveland Center
Sun 07:26:36 PM 41.4556 -77.9122 245° Southwest 193 222 7,900  Level Cleveland Center
Sun 07:27:36 PM 41.4342 -77.9742 248° West 193 222 7,900  Level Cleveland Center
Sun 07:28:36 PM 41.4128 -78.0442 246° West 193 222 7,900  Level Cleveland Center
Sun 07:29:36 PM 41.3914 -78.1086 247° West 193 222 7,900  Level Cleveland Center
Sun 07:30:36 PM 41.3717 -78.1703 246° West 193 222 7,900  Level Cleveland Center
Sun 07:31:36 PM 41.3522 -78.2292 248° West 193 222 7,900  Level Cleveland Center
Sun 07:32:36 PM 41.3325 -78.2933 246° West 193 222 7,900  Level Cleveland Center
Sun 07:33:36 PM 41.3108 -78.3578 248° West 193 222 7,900  Level Cleveland Center
Sun 07:34:36 PM 41.2914 -78.4219 246° West 193 222 7,900  Level Cleveland Center
Sun 07:35:36 PM 41.2697 -78.4864 246° West 193 222 7,900  Level Cleveland Center
Sun 07:36:36 PM 41.2478 -78.5506 246° West 193 222 7,900  Level Cleveland Center
Sun 07:37:36 PM 41.2261 -78.6147 248° West 193 222 7,900  Level Cleveland Center
Sun 07:38:36 PM 41.2061 -78.6789 246° West 193 222 7,900  Level Cleveland Center
Sun 07:39:36 PM 41.1844 -78.7428 246° West 193 222 7,900  Level Cleveland Center
Sun 07:40:36 PM 41.1625 -78.8069 248° West 193 222 7,900  Level Cleveland Center
Sun 07:41:36 PM 41.1406 -78.8792 244° Southwest 193 222 7,900  Level Cleveland Center
Sun 07:42:36 PM 41.1225 -78.9292 246° West 193 222 7,900  Level Cleveland Center
Sun 07:43:36 PM 41.0986 -78.9989 245° Southwest 193 222 7,900  Level Cleveland Center
Sun 07:44:36 PM 41.0764 -79.0628 247° West 193 222 7,900  Level Cleveland Center
Sun 07:45:36 PM 41.0564 -79.1264 247° West 193 222 7,900  Level Cleveland Center
Sun 07:46:36 PM 41.0364 -79.1903 245° Southwest 193 222 7,900  Level Cleveland Center
Sun 07:47:36 PM 41.0142 -79.2539 246° West 193 222 7,900 -200 Level Cleveland Center
Sun 07:48:36 PM 40.9919 -79.3206 246° West 193 222 7,500 -500 Descending Cleveland Center
Sun 07:49:36 PM 40.9678 -79.3925 246° West 198 228 6,900 -600 Descending Cleveland Center
Sun 07:50:36 PM 40.9456 -79.4589 246° West 198 228 6,300 -600 Descending Cleveland Center
Sun 07:51:36 PM 40.9233 -79.5253 247° West 198 228 5,700 -550 Descending Cleveland Center
Sun 07:52:36 PM 40.9008 -79.5942 246° West 198 228 5,200 -350 Descending Cleveland Center
Sun 07:53:36 PM 40.8806 -79.6550 243° Southwest 193 222 5,000 -100 Descending Cleveland Center
Sun 07:54:36 PM 40.8603 -79.7072 244° Southwest 181 208 5,000 -50 Level Cleveland Center
Sun 07:55:36 PM 40.8417 -79.7569 244° Southwest 170 196 4,900 -200 Descending Cleveland Center
Sun 07:56:36 PM 40.8192 -79.8178 246° West 165 190 4,600 50 Descending Cleveland Center
Sun 07:57:36 PM 40.7989 -79.8781 246° West 165 190 5,000 200 Climbing Cleveland Center
Sun 07:58:36 PM 40.7783 -79.9386 245° Southwest 165 190 5,000  Level Cleveland Center
Sun 07:59:36 PM 40.7578 -79.9964 244° Southwest 165 190 5,000  Level Cleveland Center
Sun 08:00:36 PM 40.7494 -80.0186 244° Southwest 165 190 5,000  Level Cleveland Center

Login

Don't have an account? Register now (free) for customized features, flight alerts, and more!